Terminal Aerodrome Forecast
Issued by NWS

Home | Current Version | Previous Version | Text Only | Print | Product List | Glossary On
Versions: 1 2 3 4 5 6 7 8 9 10 11 12 13 14 15 16 17 18 19
000
FTUS46 KMTR 051200 AAB
TAFSTS
TAF AMD
KSTS 051259Z 0513/0612 00000KT 1/4SM FG VV001
     FM051700 VRB03KT 2SM BR BKN001
     FM051800 VRB03KT P6SM SKC
     FM052100 19008KT P6SM SKC
     FM060100 VRB03KT P6SM BKN015=

USA.gov is the U.S. government's official web portal to all federal, state and local government web resources and services.